sensor_id;sensor_type;location;lat;lon;timestamp;temperature;humidity
76787;DHT22;65739;51.482;5.702;2023-09-12T00:00:30;19.50;99.90
76787;DHT22;65739;51.482;5.702;2023-09-12T00:02:56;19.50;99.90
76787;DHT22;65739;51.482;5.702;2023-09-12T00:05:21;19.60;99.90
76787;DHT22;65739;51.482;5.702;2023-09-12T00:07:47;19.60;99.90
76787;DHT22;65739;51.482;5.702;2023-09-12T00:10:13;19.50;99.90
76787;DHT22;65739;51.482;5.702;2023-09-12T00:12:38;19.50;99.90
76787;DHT22;65739;51.482;5.702;2023-09-12T00:15:04;19.40;99.90
76787;DHT22;65739;51.482;5.702;2023-09-12T00:17:30;19.40;99.90
76787;DHT22;65739;51.482;5.702;2023-09-12T00:19:55;19.30;99.90
76787;DHT22;65739;51.482;5.702;2023-09-12T00:22:21;19.40;99.90
76787;DHT22;65739;51.482;5.702;2023-09-12T00:24:46;19.30;99.90
76787;DHT22;65739;51.482;5.702;2023-09-12T00:27:12;19.10;99.90
76787;DHT22;65739;51.482;5.702;2023-09-12T00:29:37;19.10;99.90
76787;DHT22;65739;51.482;5.702;2023-09-12T00:32:03;19.10;99.90
76787;DHT22;65739;51.482;5.702;2023-09-12T00:34:28;19.10;99.90
76787;DHT22;65739;51.482;5.702;2023-09-12T00:36:54;19.10;99.90
76787;DHT22;65739;51.482;5.702;2023-09-12T00:39:19;19.10;99.90
76787;DHT22;65739;51.482;5.702;2023-09-12T00:41:45;19.10;99.90
76787;DHT22;65739;51.482;5.702;2023-09-12T00:44:10;19.10;99.90
76787;DHT22;65739;51.482;5.702;2023-09-12T00:46:37;19.10;99.90
76787;DHT22;65739;51.482;5.702;2023-09-12T00:49:05;19.00;99.90
76787;DHT22;65739;51.482;5.702;2023-09-12T00:51:32;19.00;99.90
76787;DHT22;65739;51.482;5.702;2023-09-12T00:53:58;18.90;99.90
76787;DHT22;65739;51.482;5.702;2023-09-12T00:56:24;18.90;99.90
76787;DHT22;65739;51.482;5.702;2023-09-12T00:58:50;18.90;99.90
76787;DHT22;65739;51.482;5.702;2023-09-12T01:01:18;18.90;99.90
76787;DHT22;65739;51.482;5.702;2023-09-12T01:03:43;18.80;99.90
76787;DHT22;65739;51.482;5.702;2023-09-12T01:06:09;18.80;99.90
76787;DHT22;65739;51.482;5.702;2023-09-12T01:08:35;18.60;99.90
76787;DHT22;65739;51.482;5.702;2023-09-12T01:11:04;18.50;99.90
76787;DHT22;65739;51.482;5.702;2023-09-12T01:13:29;18.40;99.90
76787;DHT22;65739;51.482;5.702;2023-09-12T01:15:55;18.40;99.90
76787;DHT22;65739;51.482;5.702;2023-09-12T01:18:20;18.30;99.90
76787;DHT22;65739;51.482;5.702;2023-09-12T01:27:12;18.30;99.90
76787;DHT22;65739;51.482;5.702;2023-09-12T01:29:40;18.20;99.90
76787;DHT22;65739;51.482;5.702;2023-09-12T01:32:06;18.20;99.90
76787;DHT22;65739;51.482;5.702;2023-09-12T01:34:31;18.10;99.90
76787;DHT22;65739;51.482;5.702;2023-09-12T01:36:57;18.10;99.90
76787;DHT22;65739;51.482;5.702;2023-09-12T01:39:22;18.20;99.90
76787;DHT22;65739;51.482;5.702;2023-09-12T01:41:49;18.20;99.90
76787;DHT22;65739;51.482;5.702;2023-09-12T01:44:17;18.30;99.90
76787;DHT22;65739;51.482;5.702;2023-09-12T01:46:43;18.40;99.90
76787;DHT22;65739;51.482;5.702;2023-09-12T01:49:10;18.40;99.90
76787;DHT22;65739;51.482;5.702;2023-09-12T01:51:36;18.40;99.90
76787;DHT22;65739;51.482;5.702;2023-09-12T01:54:03;18.30;99.90
76787;DHT22;65739;51.482;5.702;2023-09-12T01:56:30;18.20;99.90
76787;DHT22;65739;51.482;5.702;2023-09-12T01:58:56;18.20;99.90
76787;DHT22;65739;51.482;5.702;2023-09-12T02:01:21;18.10;99.90
76787;DHT22;65739;51.482;5.702;2023-09-12T02:03:47;18.10;99.90
76787;DHT22;65739;51.482;5.702;2023-09-12T02:06:12;18.10;99.90
76787;DHT22;65739;51.482;5.702;2023-09-12T02:08:38;18.00;99.90
76787;DHT22;65739;51.482;5.702;2023-09-12T02:11:03;18.20;99.90
76787;DHT22;65739;51.482;5.702;2023-09-12T02:13:29;18.30;99.90
76787;DHT22;65739;51.482;5.702;2023-09-12T02:16:01;18.30;99.90
76787;DHT22;65739;51.482;5.702;2023-09-12T02:18:28;18.10;99.90
76787;DHT22;65739;51.482;5.702;2023-09-12T02:20:54;18.00;99.90
76787;DHT22;65739;51.482;5.702;2023-09-12T02:23:19;17.90;99.90
76787;DHT22;65739;51.482;5.702;2023-09-12T02:25:45;17.90;99.90
76787;DHT22;65739;51.482;5.702;2023-09-12T02:28:10;17.90;99.90
76787;DHT22;65739;51.482;5.702;2023-09-12T02:30:38;17.80;99.90
76787;DHT22;65739;51.482;5.702;2023-09-12T02:33:05;17.80;99.90
76787;DHT22;65739;51.482;5.702;2023-09-12T02:35:31;17.80;99.90
76787;DHT22;65739;51.482;5.702;2023-09-12T02:37:56;17.70;99.90
76787;DHT22;65739;51.482;5.702;2023-09-12T02:40:22;17.70;99.90
76787;DHT22;65739;51.482;5.702;2023-09-12T02:42:47;17.70;99.90
76787;DHT22;65739;51.482;5.702;2023-09-12T02:45:13;17.60;99.90
76787;DHT22;65739;51.482;5.702;2023-09-12T02:47:38;17.60;99.90
76787;DHT22;65739;51.482;5.702;2023-09-12T02:50:04;17.60;99.90
76787;DHT22;65739;51.482;5.702;2023-09-12T02:52:30;17.60;99.90
76787;DHT22;65739;51.482;5.702;2023-09-12T02:54:55;17.60;99.90
76787;DHT22;65739;51.482;5.702;2023-09-12T02:57:21;17.60;99.90
76787;DHT22;65739;51.482;5.702;2023-09-12T02:59:47;17.60;99.90
76787;DHT22;65739;51.482;5.702;2023-09-12T03:02:12;17.50;99.90
76787;DHT22;65739;51.482;5.702;2023-09-12T03:04:38;17.50;99.90
76787;DHT22;65739;51.482;5.702;2023-09-12T03:07:03;17.50;99.90
76787;DHT22;65739;51.482;5.702;2023-09-12T03:09:29;17.40;99.90
76787;DHT22;65739;51.482;5.702;2023-09-12T03:11:54;17.40;99.90
76787;DHT22;65739;51.482;5.702;2023-09-12T03:14:20;17.40;99.90
76787;DHT22;65739;51.482;5.702;2023-09-12T03:16:45;17.40;99.90
76787;DHT22;65739;51.482;5.702;2023-09-12T03:19:11;17.40;99.90
76787;DHT22;65739;51.482;5.702;2023-09-12T03:21:36;17.30;99.90
76787;DHT22;65739;51.482;5.702;2023-09-12T03:24:02;17.30;99.90
76787;DHT22;65739;51.482;5.702;2023-09-12T03:26:28;17.30;99.90
76787;DHT22;65739;51.482;5.702;2023-09-12T03:28:53;17.30;99.90
76787;DHT22;65739;51.482;5.702;2023-09-12T03:31:19;17.30;99.90
76787;DHT22;65739;51.482;5.702;2023-09-12T03:33:44;17.20;99.90
76787;DHT22;65739;51.482;5.702;2023-09-12T03:36:15;17.20;99.90
76787;DHT22;65739;51.482;5.702;2023-09-12T03:38:41;17.20;99.90
76787;DHT22;65739;51.482;5.702;2023-09-12T03:41:06;17.30;99.90
76787;DHT22;65739;51.482;5.702;2023-09-12T03:43:33;17.20;99.90
76787;DHT22;65739;51.482;5.702;2023-09-12T03:45:59;17.20;99.90
76787;DHT22;65739;51.482;5.702;2023-09-12T03:48:24;17.30;99.90
76787;DHT22;65739;51.482;5.702;2023-09-12T03:50:50;17.30;99.90
76787;DHT22;65739;51.482;5.702;2023-09-12T03:53:15;17.30;99.90
76787;DHT22;65739;51.482;5.702;2023-09-12T03:55:41;17.30;99.90
76787;DHT22;65739;51.482;5.702;2023-09-12T03:58:07;17.40;99.90
76787;DHT22;65739;51.482;5.702;2023-09-12T04:00:33;17.40;99.90
76787;DHT22;65739;51.482;5.702;2023-09-12T04:02:58;17.50;99.90
76787;DHT22;65739;51.482;5.702;2023-09-12T04:05:25;17.50;99.90
76787;DHT22;65739;51.482;5.702;2023-09-12T04:07:51;17.50;99.90
76787;DHT22;65739;51.482;5.702;2023-09-12T04:10:18;17.50;99.90
76787;DHT22;65739;51.482;5.702;2023-09-12T04:12:44;17.50;99.90
76787;DHT22;65739;51.482;5.702;2023-09-12T04:15:09;17.50;99.90
76787;DHT22;65739;51.482;5.702;2023-09-12T04:17:35;17.50;99.90
76787;DHT22;65739;51.482;5.702;2023-09-12T04:20:00;17.50;99.90
76787;DHT22;65739;51.482;5.702;2023-09-12T04:22:26;17.50;99.90
76787;DHT22;65739;51.482;5.702;2023-09-12T04:24:51;17.50;99.90
76787;DHT22;65739;51.482;5.702;2023-09-12T04:27:17;17.50;99.90
76787;DHT22;65739;51.482;5.702;2023-09-12T04:29:42;17.50;99.90
76787;DHT22;65739;51.482;5.702;2023-09-12T04:32:08;17.60;99.90
76787;DHT22;65739;51.482;5.702;2023-09-12T04:34:34;17.60;99.90
76787;DHT22;65739;51.482;5.702;2023-09-12T04:37:00;17.70;99.90
76787;DHT22;65739;51.482;5.702;2023-09-12T04:39:28;17.70;99.90
76787;DHT22;65739;51.482;5.702;2023-09-12T04:41:53;17.70;99.90
76787;DHT22;65739;51.482;5.702;2023-09-12T04:44:19;17.80;99.90
76787;DHT22;65739;51.482;5.702;2023-09-12T04:46:44;17.80;99.90
76787;DHT22;65739;51.482;5.702;2023-09-12T04:49:10;17.80;99.90
76787;DHT22;65739;51.482;5.702;2023-09-12T04:51:35;17.80;99.90
76787;DHT22;65739;51.482;5.702;2023-09-12T04:54:01;17.80;99.90
76787;DHT22;65739;51.482;5.702;2023-09-12T04:56:26;17.80;99.90
76787;DHT22;65739;51.482;5.702;2023-09-12T04:58:52;17.80;99.90
76787;DHT22;65739;51.482;5.702;2023-09-12T05:01:18;17.80;99.90
76787;DHT22;65739;51.482;5.702;2023-09-12T05:03:43;17.80;99.90
76787;DHT22;65739;51.482;5.702;2023-09-12T05:06:10;17.90;99.90
76787;DHT22;65739;51.482;5.702;2023-09-12T05:08:35;18.00;99.90
76787;DHT22;65739;51.482;5.702;2023-09-12T05:11:01;18.00;99.90
76787;DHT22;65739;51.482;5.702;2023-09-12T05:13:28;18.10;99.90
76787;DHT22;65739;51.482;5.702;2023-09-12T05:15:53;18.20;99.90
76787;DHT22;65739;51.482;5.702;2023-09-12T05:18:19;18.10;99.90
76787;DHT22;65739;51.482;5.702;2023-09-12T05:20:44;18.10;99.90
76787;DHT22;65739;51.482;5.702;2023-09-12T05:23:10;18.00;99.90
76787;DHT22;65739;51.482;5.702;2023-09-12T05:25:36;18.00;99.90
76787;DHT22;65739;51.482;5.702;2023-09-12T05:28:01;18.00;99.90
76787;DHT22;65739;51.482;5.702;2023-09-12T05:30:28;18.10;99.90
76787;DHT22;65739;51.482;5.702;2023-09-12T05:32:54;18.10;99.90
76787;DHT22;65739;51.482;5.702;2023-09-12T05:35:19;18.10;99.90
76787;DHT22;65739;51.482;5.702;2023-09-12T05:37:45;18.10;99.90
76787;DHT22;65739;51.482;5.702;2023-09-12T05:40:10;18.20;99.90
76787;DHT22;65739;51.482;5.702;2023-09-12T05:42:36;18.20;99.90
76787;DHT22;65739;51.482;5.702;2023-09-12T05:45:01;18.20;99.90
76787;DHT22;65739;51.482;5.702;2023-09-12T05:47:27;18.20;99.90
76787;DHT22;65739;51.482;5.702;2023-09-12T05:49:53;18.20;99.90
76787;DHT22;65739;51.482;5.702;2023-09-12T05:52:19;18.20;99.90
76787;DHT22;65739;51.482;5.702;2023-09-12T05:54:44;18.30;99.90
76787;DHT22;65739;51.482;5.702;2023-09-12T05:57:10;18.30;99.90
76787;DHT22;65739;51.482;5.702;2023-09-12T05:59:37;18.40;99.90
76787;DHT22;65739;51.482;5.702;2023-09-12T06:02:04;18.40;99.90
76787;DHT22;65739;51.482;5.702;2023-09-12T06:04:31;18.40;99.90
76787;DHT22;65739;51.482;5.702;2023-09-12T06:06:57;18.40;99.90
76787;DHT22;65739;51.482;5.702;2023-09-12T06:09:22;18.40;99.90
76787;DHT22;65739;51.482;5.702;2023-09-12T06:11:48;18.30;99.90
76787;DHT22;65739;51.482;5.702;2023-09-12T06:14:13;18.40;99.90
76787;DHT22;65739;51.482;5.702;2023-09-12T06:16:39;18.40;99.90
76787;DHT22;65739;51.482;5.702;2023-09-12T06:19:04;18.40;99.90
76787;DHT22;65739;51.482;5.702;2023-09-12T06:21:30;18.40;99.90
76787;DHT22;65739;51.482;5.702;2023-09-12T06:24:15;18.40;99.90
76787;DHT22;65739;51.482;5.702;2023-09-12T06:26:41;18.40;99.90
76787;DHT22;65739;51.482;5.702;2023-09-12T06:29:07;18.40;99.90
76787;DHT22;65739;51.482;5.702;2023-09-12T06:31:33;18.50;99.90
76787;DHT22;65739;51.482;5.702;2023-09-12T06:33:59;18.50;99.90
76787;DHT22;65739;51.482;5.702;2023-09-12T06:36:33;18.50;99.90
76787;DHT22;65739;51.482;5.702;2023-09-12T07:04:48;18.80;99.90
76787;DHT22;65739;51.482;5.702;2023-09-12T07:16:55;19.30;99.90
76787;DHT22;65739;51.482;5.702;2023-09-12T07:19:21;19.50;99.90
76787;DHT22;65739;51.482;5.702;2023-09-12T07:21:46;19.50;99.90
76787;DHT22;65739;51.482;5.702;2023-09-12T07:24:15;19.60;99.90
76787;DHT22;65739;51.482;5.702;2023-09-12T07:26:50;19.60;99.90
76787;DHT22;65739;51.482;5.702;2023-09-12T07:29:16;19.70;99.90
76787;DHT22;65739;51.482;5.702;2023-09-12T07:31:41;19.80;99.90
76787;DHT22;65739;51.482;5.702;2023-09-12T07:34:07;20.00;99.90
76787;DHT22;65739;51.482;5.702;2023-09-12T07:36:33;20.10;99.90
76787;DHT22;65739;51.482;5.702;2023-09-12T08:43:09;21.20;99.90
76787;DHT22;65739;51.482;5.702;2023-09-12T08:45:37;21.30;99.90
76787;DHT22;65739;51.482;5.702;2023-09-12T08:48:04;21.40;99.90
76787;DHT22;65739;51.482;5.702;2023-09-12T08:50:30;21.50;99.90
76787;DHT22;65739;51.482;5.702;2023-09-12T09:51:40;23.40;99.90
76787;DHT22;65739;51.482;5.702;2023-09-12T09:57:17;23.10;99.90
76787;DHT22;65739;51.482;5.702;2023-09-12T09:59:54;23.30;99.90
76787;DHT22;65739;51.482;5.702;2023-09-12T10:02:21;23.70;99.90
76787;DHT22;65739;51.482;5.702;2023-09-12T10:05:10;24.00;99.90
76787;DHT22;65739;51.482;5.702;2023-09-12T10:08:06;24.10;99.90
76787;DHT22;65739;51.482;5.702;2023-09-12T10:24:19;23.70;99.90
76787;DHT22;65739;51.482;5.702;2023-09-12T10:27:07;24.00;99.90
76787;DHT22;65739;51.482;5.702;2023-09-12T10:33:50;25.10;99.90
76787;DHT22;65739;51.482;5.702;2023-09-12T10:36:46;24.70;99.90
76787;DHT22;65739;51.482;5.702;2023-09-12T11:08:24;25.40;99.90
76787;DHT22;65739;51.482;5.702;2023-09-12T11:11:39;25.60;99.90
76787;DHT22;65739;51.482;5.702;2023-09-12T11:14:17;25.70;99.90
76787;DHT22;65739;51.482;5.702;2023-09-12T11:19:55;26.00;99.90
76787;DHT22;65739;51.482;5.702;2023-09-12T11:23:09;26.60;99.90
76787;DHT22;65739;51.482;5.702;2023-09-12T11:25:37;26.90;99.90
76787;DHT22;65739;51.482;5.702;2023-09-12T11:28:36;26.70;99.90
76787;DHT22;65739;51.482;5.702;2023-09-12T11:34:41;26.80;99.90
76787;DHT22;65739;51.482;5.702;2023-09-12T11:37:27;27.40;99.90
76787;DHT22;65739;51.482;5.702;2023-09-12T11:42:41;26.90;99.90
76787;DHT22;65739;51.482;5.702;2023-09-12T11:45:26;27.10;99.90
76787;DHT22;65739;51.482;5.702;2023-09-12T11:48:00;27.20;99.90
76787;DHT22;65739;51.482;5.702;2023-09-12T11:50:58;27.60;99.90
76787;DHT22;65739;51.482;5.702;2023-09-12T11:53:49;28.50;99.90
76787;DHT22;65739;51.482;5.702;2023-09-12T11:56:16;28.50;99.90
76787;DHT22;65739;51.482;5.702;2023-09-12T11:58:47;27.80;99.90
76787;DHT22;65739;51.482;5.702;2023-09-12T12:01:13;27.80;99.90
76787;DHT22;65739;51.482;5.702;2023-09-12T12:03:39;27.90;99.90
76787;DHT22;65739;51.482;5.702;2023-09-12T12:06:05;27.90;99.90
76787;DHT22;65739;51.482;5.702;2023-09-12T12:08:31;27.40;99.90
76787;DHT22;65739;51.482;5.702;2023-09-12T12:10:57;26.70;99.90
76787;DHT22;65739;51.482;5.702;2023-09-12T12:13:26;26.70;99.90
76787;DHT22;65739;51.482;5.702;2023-09-12T12:15:53;26.60;99.90
76787;DHT22;65739;51.482;5.702;2023-09-12T12:18:18;26.20;99.90
76787;DHT22;65739;51.482;5.702;2023-09-12T12:20:44;25.90;99.90
76787;DHT22;65739;51.482;5.702;2023-09-12T12:49:59;27.30;99.90
76787;DHT22;65739;51.482;5.702;2023-09-12T12:52:37;26.70;99.90
76787;DHT22;65739;51.482;5.702;2023-09-12T12:58:34;26.30;99.90
76787;DHT22;65739;51.482;5.702;2023-09-12T13:01:00;25.90;99.90
76787;DHT22;65739;51.482;5.702;2023-09-12T13:03:35;25.80;99.90
76787;DHT22;65739;51.482;5.702;2023-09-12T13:06:23;25.70;99.90
76787;DHT22;65739;51.482;5.702;2023-09-12T14:30:51;26.90;99.90
76787;DHT22;65739;51.482;5.702;2023-09-12T14:33:18;26.30;99.90
76787;DHT22;65739;51.482;5.702;2023-09-12T14:35:44;26.30;99.90
76787;DHT22;65739;51.482;5.702;2023-09-12T14:38:10;26.20;99.90
76787;DHT22;65739;51.482;5.702;2023-09-12T14:40:35;26.40;99.90
76787;DHT22;65739;51.482;5.702;2023-09-12T14:43:01;26.50;99.90
76787;DHT22;65739;51.482;5.702;2023-09-12T14:45:28;26.50;99.90
76787;DHT22;65739;51.482;5.702;2023-09-12T14:47:53;26.80;99.90
76787;DHT22;65739;51.482;5.702;2023-09-12T14:50:21;27.00;99.90
76787;DHT22;65739;51.482;5.702;2023-09-12T14:52:49;27.30;99.90
76787;DHT22;65739;51.482;5.702;2023-09-12T14:55:15;27.30;99.90
76787;DHT22;65739;51.482;5.702;2023-09-12T14:57:41;26.80;99.90
76787;DHT22;65739;51.482;5.702;2023-09-12T15:00:07;26.60;99.90
76787;DHT22;65739;51.482;5.702;2023-09-12T15:02:35;26.50;99.90
76787;DHT22;65739;51.482;5.702;2023-09-12T15:05:02;26.50;99.90
76787;DHT22;65739;51.482;5.702;2023-09-12T15:07:29;26.70;99.90
76787;DHT22;65739;51.482;5.702;2023-09-12T15:10:01;26.50;99.90
76787;DHT22;65739;51.482;5.702;2023-09-12T15:12:27;26.40;99.90
76787;DHT22;65739;51.482;5.702;2023-09-12T15:14:52;26.50;99.90
76787;DHT22;65739;51.482;5.702;2023-09-12T15:17:19;26.40;99.90
76787;DHT22;65739;51.482;5.702;2023-09-12T15:19:44;26.00;99.90
76787;DHT22;65739;51.482;5.702;2023-09-12T15:22:10;25.80;99.90
76787;DHT22;65739;51.482;5.702;2023-09-12T15:24:35;25.60;99.90
76787;DHT22;65739;51.482;5.702;2023-09-12T15:27:01;25.40;99.90
76787;DHT22;65739;51.482;5.702;2023-09-12T15:29:27;25.40;99.90
76787;DHT22;65739;51.482;5.702;2023-09-12T15:31:53;25.30;99.90
76787;DHT22;65739;51.482;5.702;2023-09-12T15:34:24;25.30;99.90
76787;DHT22;65739;51.482;5.702;2023-09-12T15:36:50;25.30;99.90
76787;DHT22;65739;51.482;5.702;2023-09-12T15:39:30;25.30;99.90
76787;DHT22;65739;51.482;5.702;2023-09-12T15:41:56;25.30;99.90
76787;DHT22;65739;51.482;5.702;2023-09-12T15:44:42;25.40;99.90
76787;DHT22;65739;51.482;5.702;2023-09-12T15:47:09;25.20;99.90
76787;DHT22;65739;51.482;5.702;2023-09-12T15:49:35;25.00;99.90
76787;DHT22;65739;51.482;5.702;2023-09-12T15:52:02;25.00;99.90
76787;DHT22;65739;51.482;5.702;2023-09-12T15:54:28;25.00;99.90
76787;DHT22;65739;51.482;5.702;2023-09-12T15:56:55;25.10;99.90
76787;DHT22;65739;51.482;5.702;2023-09-12T15:59:21;25.10;99.90
76787;DHT22;65739;51.482;5.702;2023-09-12T16:01:46;24.90;99.90
76787;DHT22;65739;51.482;5.702;2023-09-12T16:04:12;24.70;99.90
76787;DHT22;65739;51.482;5.702;2023-09-12T16:06:38;24.60;99.90
76787;DHT22;65739;51.482;5.702;2023-09-12T16:09:04;24.50;99.90
76787;DHT22;65739;51.482;5.702;2023-09-12T16:11:31;24.20;99.90
76787;DHT22;65739;51.482;5.702;2023-09-12T16:13:57;24.20;99.90
76787;DHT22;65739;51.482;5.702;2023-09-12T16:16:22;24.10;99.90
76787;DHT22;65739;51.482;5.702;2023-09-12T16:18:48;24.00;99.90
76787;DHT22;65739;51.482;5.702;2023-09-12T16:21:14;24.10;99.90
76787;DHT22;65739;51.482;5.702;2023-09-12T16:23:39;24.00;99.90
76787;DHT22;65739;51.482;5.702;2023-09-12T16:26:08;23.80;99.90
76787;DHT22;65739;51.482;5.702;2023-09-12T16:28:33;23.90;99.90
76787;DHT22;65739;51.482;5.702;2023-09-12T16:30:59;23.80;99.90
76787;DHT22;65739;51.482;5.702;2023-09-12T16:33:24;23.70;99.90
76787;DHT22;65739;51.482;5.702;2023-09-12T16:35:50;23.50;99.90
76787;DHT22;65739;51.482;5.702;2023-09-12T16:38:16;23.20;99.90
76787;DHT22;65739;51.482;5.702;2023-09-12T16:40:41;23.30;99.90
76787;DHT22;65739;51.482;5.702;2023-09-12T16:43:07;23.20;99.90
76787;DHT22;65739;51.482;5.702;2023-09-12T16:45:32;23.20;99.90
76787;DHT22;65739;51.482;5.702;2023-09-12T16:47:58;23.20;99.90
76787;DHT22;65739;51.482;5.702;2023-09-12T16:50:25;23.10;99.90
76787;DHT22;65739;51.482;5.702;2023-09-12T16:52:51;23.10;99.90
76787;DHT22;65739;51.482;5.702;2023-09-12T16:55:16;23.10;99.90
76787;DHT22;65739;51.482;5.702;2023-09-12T16:57:42;22.90;99.90
76787;DHT22;65739;51.482;5.702;2023-09-12T17:00:08;22.80;99.90
76787;DHT22;65739;51.482;5.702;2023-09-12T17:02:34;22.70;99.90
76787;DHT22;65739;51.482;5.702;2023-09-12T17:05:01;22.70;99.90
76787;DHT22;65739;51.482;5.702;2023-09-12T17:07:27;22.60;99.90
76787;DHT22;65739;51.482;5.702;2023-09-12T17:09:53;22.50;99.90
76787;DHT22;65739;51.482;5.702;2023-09-12T17:12:18;22.40;99.90
76787;DHT22;65739;51.482;5.702;2023-09-12T17:14:44;22.30;99.90
76787;DHT22;65739;51.482;5.702;2023-09-12T17:17:09;22.30;99.90
76787;DHT22;65739;51.482;5.702;2023-09-12T17:19:35;22.10;99.90
76787;DHT22;65739;51.482;5.702;2023-09-12T17:22:00;22.00;99.90
76787;DHT22;65739;51.482;5.702;2023-09-12T17:24:26;22.00;99.90
76787;DHT22;65739;51.482;5.702;2023-09-12T17:26:51;22.00;99.90
76787;DHT22;65739;51.482;5.702;2023-09-12T17:29:19;22.00;99.90
76787;DHT22;65739;51.482;5.702;2023-09-12T17:31:46;21.90;99.90
76787;DHT22;65739;51.482;5.702;2023-09-12T17:34:14;21.90;99.90
76787;DHT22;65739;51.482;5.702;2023-09-12T17:36:39;21.90;99.90
76787;DHT22;65739;51.482;5.702;2023-09-12T17:39:05;21.70;99.90
76787;DHT22;65739;51.482;5.702;2023-09-12T17:41:31;21.60;99.90
76787;DHT22;65739;51.482;5.702;2023-09-12T17:43:56;21.60;99.90
76787;DHT22;65739;51.482;5.702;2023-09-12T17:46:22;21.60;99.90
76787;DHT22;65739;51.482;5.702;2023-09-12T17:48:48;21.60;99.90
76787;DHT22;65739;51.482;5.702;2023-09-12T17:51:14;21.60;99.90
76787;DHT22;65739;51.482;5.702;2023-09-12T17:53:39;21.50;99.90
76787;DHT22;65739;51.482;5.702;2023-09-12T17:56:06;21.50;99.90
76787;DHT22;65739;51.482;5.702;2023-09-12T17:58:31;21.40;99.90
76787;DHT22;65739;51.482;5.702;2023-09-12T18:00:58;21.30;99.90
76787;DHT22;65739;51.482;5.702;2023-09-12T18:03:26;21.30;99.90
76787;DHT22;65739;51.482;5.702;2023-09-12T18:05:54;21.30;99.90
76787;DHT22;65739;51.482;5.702;2023-09-12T18:08:20;21.30;99.90
76787;DHT22;65739;51.482;5.702;2023-09-12T18:10:47;21.20;99.90
76787;DHT22;65739;51.482;5.702;2023-09-12T18:13:12;21.20;99.90
76787;DHT22;65739;51.482;5.702;2023-09-12T18:15:38;21.20;99.90
76787;DHT22;65739;51.482;5.702;2023-09-12T18:18:04;21.20;99.90
76787;DHT22;65739;51.482;5.702;2023-09-12T18:20:29;21.10;99.90
76787;DHT22;65739;51.482;5.702;2023-09-12T18:22:58;21.20;99.90
76787;DHT22;65739;51.482;5.702;2023-09-12T18:25:24;21.10;99.90
76787;DHT22;65739;51.482;5.702;2023-09-12T18:27:50;21.00;99.90
76787;DHT22;65739;51.482;5.702;2023-09-12T18:30:15;21.00;99.90
76787;DHT22;65739;51.482;5.702;2023-09-12T18:32:41;20.90;99.90
76787;DHT22;65739;51.482;5.702;2023-09-12T18:35:06;20.90;99.90
76787;DHT22;65739;51.482;5.702;2023-09-12T18:37:32;20.90;99.90
76787;DHT22;65739;51.482;5.702;2023-09-12T18:39:58;20.90;99.90
76787;DHT22;65739;51.482;5.702;2023-09-12T18:42:23;20.90;99.90
76787;DHT22;65739;51.482;5.702;2023-09-12T18:44:49;20.90;99.90
76787;DHT22;65739;51.482;5.702;2023-09-12T18:47:15;20.80;99.90
76787;DHT22;65739;51.482;5.702;2023-09-12T18:49:40;20.80;99.90
76787;DHT22;65739;51.482;5.702;2023-09-12T18:52:06;20.90;99.90
76787;DHT22;65739;51.482;5.702;2023-09-12T18:54:31;20.90;99.90
76787;DHT22;65739;51.482;5.702;2023-09-12T18:56:59;20.90;99.90
76787;DHT22;65739;51.482;5.702;2023-09-12T18:59:25;20.80;99.90
76787;DHT22;65739;51.482;5.702;2023-09-12T19:01:51;20.80;99.90
76787;DHT22;65739;51.482;5.702;2023-09-12T19:04:26;20.80;99.90
76787;DHT22;65739;51.482;5.702;2023-09-12T19:06:53;20.80;99.90
76787;DHT22;65739;51.482;5.702;2023-09-12T19:09:19;20.80;99.90
76787;DHT22;65739;51.482;5.702;2023-09-12T19:11:45;20.80;99.90
76787;DHT22;65739;51.482;5.702;2023-09-12T19:14:12;20.80;99.90
76787;DHT22;65739;51.482;5.702;2023-09-12T19:16:37;20.80;99.90
76787;DHT22;65739;51.482;5.702;2023-09-12T19:19:03;20.80;99.90
76787;DHT22;65739;51.482;5.702;2023-09-12T19:21:29;20.80;99.90
76787;DHT22;65739;51.482;5.702;2023-09-12T19:23:55;20.80;99.90
76787;DHT22;65739;51.482;5.702;2023-09-12T19:26:21;20.80;99.90
76787;DHT22;65739;51.482;5.702;2023-09-12T19:28:46;20.80;99.90
76787;DHT22;65739;51.482;5.702;2023-09-12T19:31:11;20.80;99.90
76787;DHT22;65739;51.482;5.702;2023-09-12T19:33:37;20.80;99.90
76787;DHT22;65739;51.482;5.702;2023-09-12T19:36:03;20.80;99.90
76787;DHT22;65739;51.482;5.702;2023-09-12T19:38:28;20.70;99.90
76787;DHT22;65739;51.482;5.702;2023-09-12T19:40:58;20.70;99.90
76787;DHT22;65739;51.482;5.702;2023-09-12T19:43:24;20.70;99.90
76787;DHT22;65739;51.482;5.702;2023-09-12T19:45:50;20.60;99.90
76787;DHT22;65739;51.482;5.702;2023-09-12T19:48:16;20.70;99.90
76787;DHT22;65739;51.482;5.702;2023-09-12T19:50:46;20.70;99.90
76787;DHT22;65739;51.482;5.702;2023-09-12T19:53:12;20.70;99.90
76787;DHT22;65739;51.482;5.702;2023-09-12T19:55:52;20.60;99.90
76787;DHT22;65739;51.482;5.702;2023-09-12T19:58:18;20.70;99.90
76787;DHT22;65739;51.482;5.702;2023-09-12T20:00:45;20.60;99.90
76787;DHT22;65739;51.482;5.702;2023-09-12T20:03:11;20.60;99.90
76787;DHT22;65739;51.482;5.702;2023-09-12T20:05:37;20.60;99.90
76787;DHT22;65739;51.482;5.702;2023-09-12T20:08:04;20.60;99.90
76787;DHT22;65739;51.482;5.702;2023-09-12T20:10:30;20.50;99.90
76787;DHT22;65739;51.482;5.702;2023-09-12T20:12:59;20.50;99.90
76787;DHT22;65739;51.482;5.702;2023-09-12T20:15:24;20.50;99.90
76787;DHT22;65739;51.482;5.702;2023-09-12T20:17:51;20.40;99.90
76787;DHT22;65739;51.482;5.702;2023-09-12T20:20:17;20.40;99.90
76787;DHT22;65739;51.482;5.702;2023-09-12T20:22:44;20.30;99.90
76787;DHT22;65739;51.482;5.702;2023-09-12T20:25:10;20.30;99.90
76787;DHT22;65739;51.482;5.702;2023-09-12T20:27:35;20.20;99.90
76787;DHT22;65739;51.482;5.702;2023-09-12T20:30:01;20.20;99.90
76787;DHT22;65739;51.482;5.702;2023-09-12T20:32:26;20.20;99.90
76787;DHT22;65739;51.482;5.702;2023-09-12T20:34:52;20.10;99.90
76787;DHT22;65739;51.482;5.702;2023-09-12T20:37:18;20.10;99.90
76787;DHT22;65739;51.482;5.702;2023-09-12T20:39:43;20.10;99.90
76787;DHT22;65739;51.482;5.702;2023-09-12T20:42:09;20.00;99.90
76787;DHT22;65739;51.482;5.702;2023-09-12T20:44:34;20.00;99.90
76787;DHT22;65739;51.482;5.702;2023-09-12T20:47:01;20.00;99.90
76787;DHT22;65739;51.482;5.702;2023-09-12T20:49:27;20.00;99.90
76787;DHT22;65739;51.482;5.702;2023-09-12T20:51:53;20.00;99.90
76787;DHT22;65739;51.482;5.702;2023-09-12T20:54:19;20.00;99.90
76787;DHT22;65739;51.482;5.702;2023-09-12T20:56:47;20.00;99.90
76787;DHT22;65739;51.482;5.702;2023-09-12T20:59:14;20.00;99.90
76787;DHT22;65739;51.482;5.702;2023-09-12T21:01:39;20.00;99.90
76787;DHT22;65739;51.482;5.702;2023-09-12T21:04:05;19.90;99.90
76787;DHT22;65739;51.482;5.702;2023-09-12T21:06:31;19.90;99.90